createdAt,value
2023-02-25T00:02:02.585Z,0.84
2023-02-25T00:04:32.374Z,0.77
2023-02-25T00:07:02.732Z,0.69
2023-02-25T00:09:32.052Z,0.74
2023-02-25T00:12:00.617Z,0.66
2023-02-25T00:14:29.297Z,0.66
2023-02-25T00:16:57.935Z,0.73
2023-02-25T00:19:27.488Z,0.27
2023-02-25T00:21:57.327Z,0.79
2023-02-25T00:24:27.441Z,0.90
2023-02-25T00:26:55.826Z,0.98
2023-02-25T00:29:24.250Z,0.94
2023-02-25T00:31:52.843Z,0.76
2023-02-25T00:34:22.691Z,0.34
2023-02-25T00:36:51.198Z,0.80
2023-02-25T00:39:20.034Z,0.94
2023-02-25T00:41:49.727Z,0.94
2023-02-25T00:44:18.200Z,1.08
2023-02-25T00:46:46.658Z,1.20
2023-02-25T00:49:30.586Z,1.12
2023-02-25T00:52:01.151Z,0.94
2023-02-25T00:54:30.192Z,1.00
2023-02-25T00:57:00.055Z,0.97
2023-02-25T00:59:28.689Z,0.61
2023-02-25T01:01:57.223Z,0.84
2023-02-25T01:04:26.460Z,0.68
2023-02-25T01:06:55.457Z,0.68
2023-02-25T01:09:23.848Z,0.75
2023-02-25T01:11:52.705Z,0.79
2023-02-25T01:14:24.957Z,0.86
2023-02-25T01:16:56.283Z,1.10
2023-02-25T01:19:27.085Z,0.75
2023-02-25T01:21:58.324Z,0.98
2023-02-25T01:24:29.153Z,0.78
2023-02-25T01:27:01.329Z,0.86
2023-02-25T01:29:33.660Z,0.67
2023-02-25T01:32:04.682Z,0.60
2023-02-25T01:34:33.474Z,0.76
2023-02-25T01:37:04.932Z,0.58
2023-02-25T01:39:34.231Z,0.59
2023-02-25T01:42:13.785Z,0.83
2023-02-25T01:45:32.710Z,0.83
2023-02-25T01:48:12.694Z,1.04
2023-02-25T01:50:51.759Z,0.95
2023-02-25T01:53:25.384Z,1.10
2023-02-25T01:55:54.756Z,1.15
2023-02-25T01:58:23.922Z,0.90
2023-02-25T02:00:55.522Z,1.22
2023-02-25T02:03:28.301Z,1.28
2023-02-25T02:06:06.486Z,1.03
2023-02-25T02:08:36.340Z,1.11
2023-02-25T02:11:06.733Z,1.29
2023-02-25T02:13:38.187Z,1.29
2023-02-25T02:16:32.836Z,1.15
2023-02-25T02:19:20.218Z,0.93
2023-02-25T02:22:04.852Z,0.95
2023-02-25T02:25:17.344Z,1.28
2023-02-25T02:28:10.494Z,0.98
2023-02-25T02:30:53.422Z,0.65
2023-02-25T02:33:31.212Z,0.61
2023-02-25T02:36:09.456Z,0.87
2023-02-25T02:38:44.454Z,0.79
2023-02-25T02:41:26.158Z,0.61
2023-02-25T02:44:04.628Z,0.42
2023-02-25T02:46:38.585Z,0.19
2023-02-25T02:49:15.098Z,0.99
2023-02-25T02:51:52.911Z,0.91
2023-02-25T02:54:25.736Z,0.56
2023-02-25T02:56:57.330Z,-0.17
2023-02-25T02:59:31.825Z,1.15
2023-02-25T03:02:06.550Z,1.18
2023-02-25T03:04:43.405Z,0.58
2023-02-25T03:07:14.559Z,1.37
2023-02-25T03:09:50.582Z,0.15
2023-02-25T03:12:19.306Z,1.39
2023-02-25T03:14:48.104Z,0.46
2023-02-25T03:17:21.200Z,1.31
2023-02-25T03:19:57.679Z,0.79
2023-02-25T03:22:33.099Z,1.33
2023-02-25T03:25:09.358Z,1.24
2023-02-25T03:27:41.378Z,1.41
2023-02-25T03:30:23.380Z,0.78
2023-02-25T03:32:59.317Z,1.06
2023-02-25T03:35:31.716Z,1.24
2023-02-25T03:38:05.223Z,1.25
2023-02-25T03:40:37.739Z,1.21
2023-02-25T03:43:11.535Z,1.19
2023-02-25T03:45:43.898Z,1.08
2023-02-25T03:48:15.183Z,0.99
2023-02-25T03:50:52.526Z,0.91
2023-02-25T03:53:21.322Z,1.06
2023-02-25T03:55:54.603Z,1.13
2023-02-25T03:58:25.034Z,0.95
2023-02-25T04:00:58.851Z,0.79
2023-02-25T04:03:27.299Z,0.94
2023-02-25T04:05:57.415Z,0.99
2023-02-25T04:08:27.630Z,0.56
2023-02-25T04:10:56.081Z,0.84
2023-02-25T04:13:24.712Z,0.83
2023-02-25T04:15:53.229Z,0.07
2023-02-25T04:18:21.580Z,0.62
2023-02-25T04:20:49.870Z,0.66
2023-02-25T04:23:20.259Z,0.52
2023-02-25T04:25:48.647Z,0.86
2023-02-25T04:28:17.268Z,0.85
2023-02-25T04:30:45.947Z,0.93
2023-02-25T04:33:14.863Z,1.08
2023-02-25T04:35:44.242Z,1.01
2023-02-25T04:38:12.663Z,1.02
2023-02-25T04:40:42.885Z,1.01
2023-02-25T04:43:11.348Z,0.59
2023-02-25T04:45:39.847Z,-0.35
2023-02-25T04:48:08.622Z,0.84
2023-02-25T04:50:37.052Z,-0.46
2023-02-25T04:53:05.764Z,0.55
2023-02-25T04:55:37.168Z,0.70
2023-02-25T04:58:06.822Z,0.62
2023-02-25T05:00:35.190Z,0.93
2023-02-25T05:03:03.702Z,0.91
2023-02-25T05:05:32.239Z,1.40
2023-02-25T05:08:00.571Z,1.47
2023-02-25T05:10:29.037Z,1.56
2023-02-25T05:12:58.560Z,1.37
2023-02-25T05:15:28.451Z,1.58
2023-02-25T05:17:57.141Z,0.99
2023-02-25T05:20:25.622Z,1.26
2023-02-25T05:22:54.126Z,0.88
2023-02-25T05:25:22.656Z,0.73
2023-02-25T05:27:51.422Z,0.79
2023-02-25T05:30:20.714Z,0.42
2023-02-25T05:32:51.136Z,0.18
2023-02-25T05:35:20.305Z,-1.15
2023-02-25T05:37:48.820Z,-0.05
2023-02-25T05:40:18.171Z,0.20
2023-02-25T05:42:49.738Z,0.25
2023-02-25T05:45:19.040Z,0.40
2023-02-25T05:47:47.678Z,-0.20
2023-02-25T05:50:17.858Z,-0.28
2023-02-25T05:52:46.905Z,-0.84
2023-02-25T05:55:18.035Z,-1.17
2023-02-25T05:57:46.476Z,-0.48
2023-02-25T06:00:21.413Z,-0.15
2023-02-25T06:02:49.907Z,0.14
2023-02-25T06:05:20.081Z,0.10
2023-02-25T06:07:48.420Z,-0.81
2023-02-25T06:10:17.533Z,0.07
2023-02-25T06:12:49.206Z,0.07
2023-02-25T06:15:18.160Z,0.12
2023-02-25T06:17:46.714Z,-0.98
2023-02-25T06:20:16.708Z,-1.09
2023-02-25T06:22:46.739Z,0.07
2023-02-25T06:25:15.308Z,0.09
2023-02-25T06:27:43.937Z,0.06
2023-02-25T06:30:13.848Z,0.07
2023-02-25T06:32:42.474Z,-0.05
2023-02-25T06:35:11.388Z,0.12
2023-02-25T06:37:40.500Z,0.13
2023-02-25T06:40:14.416Z,-0.22
2023-02-25T06:42:43.121Z,0.20
2023-02-25T06:45:12.205Z,0.19
2023-02-25T06:47:40.925Z,-0.07
2023-02-25T06:50:11.139Z,-0.08
2023-02-25T06:52:40.502Z,0.25
2023-02-25T06:55:11.802Z,0.06
2023-02-25T06:57:40.176Z,0.14
2023-02-25T07:00:11.008Z,0.13
2023-02-25T07:02:40.084Z,-0.12
2023-02-25T07:05:09.582Z,0.13
2023-02-25T07:07:37.976Z,0.28
2023-02-25T07:10:10.654Z,0.36
2023-02-25T07:12:39.003Z,0.34
2023-02-25T07:15:09.705Z,0.19
2023-02-25T07:17:38.855Z,0.49
2023-02-25T07:20:09.030Z,0.52
2023-02-25T07:22:37.528Z,0.35
2023-02-25T07:25:07.891Z,0.49
2023-02-25T07:27:37.784Z,0.71
2023-02-25T07:30:07.462Z,0.83
2023-02-25T07:32:36.000Z,1.00
2023-02-25T07:35:04.900Z,1.21
2023-02-25T07:37:33.585Z,1.37
2023-02-25T07:40:01.953Z,1.48
2023-02-25T07:42:30.751Z,1.51
2023-02-25T07:45:02.845Z,1.27
2023-02-25T07:47:31.333Z,1.39
2023-02-25T07:50:00.117Z,1.48
2023-02-25T07:52:29.225Z,1.47
2023-02-25T07:54:57.684Z,1.41
2023-02-25T07:57:26.189Z,1.40
2023-02-25T07:59:54.646Z,1.36
2023-02-25T08:02:24.548Z,1.25
2023-02-25T08:04:53.237Z,1.44
2023-02-25T08:07:21.672Z,1.36
2023-02-25T08:09:50.069Z,1.33
2023-02-25T08:12:18.525Z,1.39
2023-02-25T08:14:46.950Z,1.33
2023-02-25T08:17:16.093Z,1.45
2023-02-25T08:19:46.088Z,1.45
2023-02-25T08:22:14.489Z,1.28
2023-02-25T08:24:43.031Z,1.51
2023-02-25T08:27:11.624Z,1.25
2023-02-25T08:29:40.088Z,1.42
2023-02-25T08:32:09.881Z,1.66
2023-02-25T08:34:38.512Z,1.59
2023-02-25T08:37:11.321Z,1.53
2023-02-25T08:39:39.979Z,1.69
2023-02-25T08:42:08.408Z,1.86
2023-02-25T08:44:36.934Z,2.22
2023-02-25T08:47:05.852Z,2.50
2023-02-25T08:49:34.394Z,2.64
2023-02-25T08:52:02.812Z,2.44
2023-02-25T08:54:32.685Z,2.30
2023-02-25T08:57:01.354Z,2.23
2023-02-25T08:59:36.113Z,2.14
2023-02-25T09:02:06.506Z,1.99
2023-02-25T09:04:35.961Z,2.29
2023-02-25T09:07:04.626Z,2.21
2023-02-25T09:09:34.997Z,2.37
2023-02-25T09:12:05.215Z,2.64
2023-02-25T09:14:33.760Z,2.77
2023-02-25T09:17:03.889Z,2.84
2023-02-25T09:19:38.417Z,3.00
2023-02-25T09:22:07.580Z,3.07
2023-02-25T09:24:37.966Z,3.34
2023-02-25T09:27:07.895Z,3.41
2023-02-25T09:29:36.925Z,3.31
2023-02-25T09:32:06.019Z,4.05
2023-02-25T09:34:34.914Z,4.34
2023-02-25T09:37:06.702Z,4.41
2023-02-25T09:39:37.998Z,4.34
2023-02-25T09:42:10.992Z,4.45
2023-02-25T09:44:44.644Z,4.32
2023-02-25T09:47:20.770Z,4.30
2023-02-25T09:49:56.813Z,4.26
2023-02-25T09:52:29.896Z,3.90
2023-02-25T09:55:08.379Z,3.96
2023-02-25T09:57:42.087Z,4.18
2023-02-25T10:00:19.836Z,3.85
2023-02-25T10:02:55.320Z,3.99
2023-02-25T10:05:30.308Z,4.18
2023-02-25T10:08:09.533Z,4.49
2023-02-25T10:10:50.923Z,4.57
2023-02-25T10:13:31.222Z,4.76
2023-02-25T10:16:10.270Z,4.82
2023-02-25T10:18:58.600Z,4.96
2023-02-25T10:21:44.475Z,4.85
2023-02-25T10:24:29.658Z,4.79
2023-02-25T10:27:07.470Z,4.71
2023-02-25T10:29:42.192Z,4.53
2023-02-25T10:32:21.251Z,4.34
2023-02-25T10:34:51.906Z,4.50
2023-02-25T10:37:27.220Z,4.53
2023-02-25T10:39:59.973Z,4.80
2023-02-25T10:42:30.200Z,5.21
2023-02-25T10:45:08.444Z,5.12
2023-02-25T10:47:40.149Z,4.88
2023-02-25T10:50:42.995Z,5.14
2023-02-25T10:53:17.141Z,4.45
2023-02-25T10:55:55.113Z,3.52
2023-02-25T10:58:36.546Z,3.28
2023-02-25T11:01:15.177Z,3.25
2023-02-25T11:03:55.152Z,3.36
2023-02-25T11:06:29.735Z,3.43
2023-02-25T11:09:00.688Z,3.26
2023-02-25T11:11:32.473Z,3.42
2023-02-25T11:14:06.738Z,3.67
2023-02-25T11:16:38.895Z,4.22
2023-02-25T11:19:16.129Z,4.78
2023-02-25T11:21:45.350Z,4.88
2023-02-25T11:24:17.514Z,5.25
2023-02-25T11:26:49.105Z,5.23
2023-02-25T11:29:24.267Z,4.90
2023-02-25T11:31:56.304Z,4.86
2023-02-25T11:34:28.245Z,4.76
2023-02-25T11:36:59.442Z,4.66
2023-02-25T11:39:30.847Z,4.65
2023-02-25T11:42:18.911Z,4.55
2023-02-25T11:44:49.150Z,4.73
2023-02-25T11:47:26.653Z,4.34
2023-02-25T11:50:23.888Z,4.26
2023-02-25T11:53:05.164Z,4.49
2023-02-25T11:55:57.599Z,4.58
2023-02-25T11:58:39.614Z,4.81
2023-02-25T12:01:22.236Z,5.44
2023-02-25T12:04:24.331Z,6.14
2023-02-25T12:07:20.012Z,6.74
2023-02-25T12:10:31.942Z,5.39
2023-02-25T12:13:44.652Z,4.71
2023-02-25T12:17:24.348Z,4.42
2023-02-25T12:20:52.987Z,4.17
2023-02-25T12:24:21.329Z,3.82
2023-02-25T12:27:40.192Z,3.83
2023-02-25T12:30:40.614Z,3.34
2023-02-25T12:33:35.765Z,3.45
2023-02-25T12:36:27.210Z,3.01
2023-02-25T12:39:21.289Z,3.53
2023-02-25T12:42:01.520Z,3.62
2023-02-25T12:45:13.333Z,4.01
2023-02-25T12:48:03.596Z,3.92
2023-02-25T12:50:53.694Z,4.46
2023-02-25T12:53:45.313Z,4.46
2023-02-25T12:56:44.135Z,4.66
2023-02-25T12:59:58.584Z,5.26
2023-02-25T13:02:53.934Z,5.53
2023-02-25T13:06:16.719Z,5.74
2023-02-25T13:09:15.150Z,4.83
2023-02-25T13:12:14.181Z,5.08
2023-02-25T13:14:58.967Z,4.93
2023-02-25T13:18:09.273Z,4.80
2023-02-25T13:21:02.920Z,4.70
2023-02-25T13:23:58.071Z,4.89
2023-02-25T13:27:25.390Z,5.06
2023-02-25T13:30:16.507Z,5.00
2023-02-25T13:33:01.366Z,5.17
2023-02-25T13:35:46.134Z,4.50
2023-02-25T13:38:35.685Z,4.38
2023-02-25T13:41:29.742Z,4.59
2023-02-25T13:44:34.097Z,4.94
2023-02-25T13:47:36.433Z,5.49
2023-02-25T13:50:41.722Z,5.72
2023-02-25T13:53:33.968Z,5.73
2023-02-25T13:56:52.029Z,5.21
2023-02-25T13:59:56.655Z,5.10
2023-02-25T14:03:02.268Z,4.77
2023-02-25T14:06:03.747Z,5.17
2023-02-25T14:08:58.069Z,4.92
2023-02-25T14:11:51.344Z,5.21
2023-02-25T14:15:02.662Z,5.42
2023-02-25T14:18:04.504Z,5.63
2023-02-25T14:20:51.006Z,5.71
2023-02-25T14:23:33.999Z,5.73
2023-02-25T14:26:27.714Z,5.66
2023-02-25T14:29:16.278Z,5.22
2023-02-25T14:32:14.908Z,5.17
2023-02-25T14:35:07.548Z,4.91
2023-02-25T14:37:47.272Z,4.85
2023-02-25T14:40:29.868Z,4.95
2023-02-25T14:43:32.268Z,4.84
2023-02-25T14:46:16.474Z,4.79
2023-02-25T14:48:59.292Z,5.09
2023-02-25T14:51:56.529Z,5.32
2023-02-25T14:55:26.129Z,4.82
2023-02-25T14:58:30.571Z,4.92
2023-02-25T15:01:46.977Z,4.51
2023-02-25T15:05:30.183Z,4.43
2023-02-25T15:08:35.712Z,4.19
2023-02-25T15:11:31.429Z,4.55
2023-02-25T15:14:47.590Z,4.74
2023-02-25T15:17:57.544Z,4.29
2023-02-25T15:20:35.132Z,3.84
2023-02-25T15:23:13.681Z,4.12
2023-02-25T15:25:49.937Z,4.24
2023-02-25T15:28:45.421Z,3.72
2023-02-25T15:31:39.317Z,3.43
2023-02-25T15:34:37.686Z,3.70
2023-02-25T15:37:32.621Z,3.69
2023-02-25T15:40:34.065Z,3.72
2023-02-25T15:43:24.773Z,3.53
2023-02-25T15:45:55.985Z,3.34
2023-02-25T15:48:37.896Z,3.23
2023-02-25T15:51:14.226Z,3.10
2023-02-25T15:53:48.286Z,2.94
2023-02-25T15:57:01.395Z,2.98
2023-02-25T15:59:46.261Z,2.67
2023-02-25T16:02:42.569Z,2.97
2023-02-25T16:05:27.109Z,2.94
2023-02-25T16:08:13.416Z,2.84
2023-02-25T16:10:46.297Z,2.97
2023-02-25T16:13:24.004Z,2.65
2023-02-25T16:15:57.452Z,2.59
2023-02-25T16:18:33.574Z,2.58
2023-02-25T16:21:07.088Z,2.32
2023-02-25T16:23:40.772Z,2.51
2023-02-25T16:26:23.210Z,2.02
2023-02-25T16:29:07.248Z,2.00
2023-02-25T16:31:42.811Z,2.21
2023-02-25T16:34:17.900Z,2.09
2023-02-25T16:36:55.572Z,2.12
2023-02-25T16:39:27.637Z,1.90
2023-02-25T16:41:56.511Z,1.76
2023-02-25T16:44:32.591Z,2.00
2023-02-25T16:47:01.108Z,1.96
2023-02-25T16:49:34.454Z,1.82
2023-02-25T16:52:03.353Z,1.89
2023-02-25T16:54:36.172Z,1.75
2023-02-25T16:57:09.430Z,1.76
2023-02-25T16:59:40.143Z,1.62
2023-02-25T17:02:25.646Z,1.30
2023-02-25T17:04:56.232Z,1.37
2023-02-25T17:07:27.850Z,1.19
2023-02-25T17:10:00.611Z,1.08
2023-02-25T17:12:33.810Z,1.17
2023-02-25T17:15:09.496Z,0.94
2023-02-25T17:17:42.685Z,1.08
2023-02-25T17:20:18.557Z,0.88
2023-02-25T17:22:47.369Z,1.03
2023-02-25T17:25:17.793Z,0.68
2023-02-25T17:27:50.393Z,0.95
2023-02-25T17:30:45.600Z,0.74
2023-02-25T17:33:26.220Z,0.29
2023-02-25T17:35:59.561Z,0.68
2023-02-25T17:38:29.691Z,0.16
2023-02-25T17:40:59.332Z,0.40
2023-02-25T17:43:38.167Z,0.44
2023-02-25T17:46:26.068Z,0.55
2023-02-25T17:48:58.244Z,-0.03
2023-02-25T17:51:33.715Z,0.66
2023-02-25T17:54:08.847Z,0.45
2023-02-25T17:56:38.106Z,-0.03
2023-02-25T17:59:09.319Z,0.27
2023-02-25T18:01:54.436Z,0.23
2023-02-25T18:04:26.596Z,0.23
2023-02-25T18:06:56.465Z,0.26
2023-02-25T18:09:39.311Z,0.11
2023-02-25T18:12:16.706Z,0.20
2023-02-25T18:14:47.964Z,-0.14
2023-02-25T18:17:28.282Z,-0.42
2023-02-25T18:19:59.257Z,0.08
2023-02-25T18:22:35.176Z,-0.14
2023-02-25T18:25:07.808Z,-0.85
2023-02-25T18:27:37.916Z,0.02
2023-02-25T18:30:20.000Z,-0.11
2023-02-25T18:32:49.824Z,0.17
2023-02-25T18:35:19.546Z,-0.29
2023-02-25T18:37:52.060Z,0.01
2023-02-25T18:40:26.604Z,0.02
2023-02-25T18:42:55.574Z,0.04
2023-02-25T18:45:26.761Z,-0.24
2023-02-25T18:48:00.269Z,-0.05
2023-02-25T18:50:32.322Z,-0.45
2023-02-25T18:53:01.159Z,-0.24
2023-02-25T18:55:32.551Z,-0.33
2023-02-25T18:58:02.186Z,-0.41
2023-02-25T19:00:30.965Z,-0.46
2023-02-25T19:03:03.745Z,-0.67
2023-02-25T19:05:32.535Z,-1.04
2023-02-25T19:08:01.684Z,-0.84
2023-02-25T19:10:37.486Z,-0.92
2023-02-25T19:13:09.006Z,-0.54
2023-02-25T19:15:37.554Z,-0.59
2023-02-25T19:18:07.691Z,-0.59
2023-02-25T19:20:36.339Z,-0.49
2023-02-25T19:23:04.788Z,-0.68
2023-02-25T19:25:36.885Z,-0.60
2023-02-25T19:28:07.415Z,-0.79
2023-02-25T19:30:39.810Z,-0.68
2023-02-25T19:33:11.313Z,-0.66
2023-02-25T19:35:42.369Z,-0.61
2023-02-25T19:38:15.715Z,-0.52
2023-02-25T19:40:45.194Z,-0.57
2023-02-25T19:43:15.156Z,-1.17
2023-02-25T19:45:44.081Z,-0.78
2023-02-25T19:48:14.167Z,-0.93
2023-02-25T19:50:42.978Z,-1.02
2023-02-25T19:53:12.196Z,-0.84
2023-02-25T19:55:40.660Z,-0.88
2023-02-25T19:58:09.202Z,-0.84
2023-02-25T20:00:38.366Z,-0.88
2023-02-25T20:03:07.729Z,-1.55
2023-02-25T20:05:37.447Z,-1.08
2023-02-25T20:08:06.384Z,-1.15
2023-02-25T20:10:35.085Z,-1.12
2023-02-25T20:13:03.676Z,-1.17
2023-02-25T20:15:32.178Z,-1.48
2023-02-25T20:18:00.573Z,-1.31
2023-02-25T20:20:29.020Z,-1.19
2023-02-25T20:22:58.713Z,-1.58
2023-02-25T20:25:29.275Z,-1.39
2023-02-25T20:27:57.786Z,-1.23
2023-02-25T20:30:26.306Z,-1.35
2023-02-25T20:32:54.815Z,-1.31
2023-02-25T20:35:26.326Z,-1.20
2023-02-25T20:38:29.916Z,-1.11
2023-02-25T20:40:58.613Z,-1.34
2023-02-25T20:43:27.487Z,-1.32
2023-02-25T20:45:56.989Z,-1.51
2023-02-25T20:48:30.790Z,-1.59
2023-02-25T20:51:00.982Z,-1.88
2023-02-25T20:53:32.502Z,-2.03
2023-02-25T20:56:00.982Z,-1.70
2023-02-25T20:58:29.367Z,-1.43
2023-02-25T21:00:57.797Z,-1.66
2023-02-25T21:03:26.348Z,-1.60
2023-02-25T21:05:54.786Z,-2.63
2023-02-25T21:08:23.211Z,-1.56
2023-02-25T21:10:53.069Z,-1.58
2023-02-25T21:13:21.482Z,-1.74
2023-02-25T21:15:49.905Z,-2.52
2023-02-25T21:18:18.284Z,-1.48
2023-02-25T21:20:46.812Z,-1.71
2023-02-25T21:23:15.271Z,-1.52
2023-02-25T21:25:43.678Z,-1.72
2023-02-25T21:28:13.498Z,-1.62
2023-02-25T21:30:42.006Z,-1.52
2023-02-25T21:33:12.201Z,-1.72
2023-02-25T21:35:40.759Z,-1.94
2023-02-25T21:38:09.176Z,-2.51
2023-02-25T21:40:37.611Z,-2.75
2023-02-25T21:43:05.999Z,-1.86
2023-02-25T21:45:35.948Z,-1.98
2023-02-25T21:48:04.518Z,-1.81
2023-02-25T21:50:33.791Z,-1.94
2023-02-25T21:53:04.867Z,-1.68
2023-02-25T21:55:33.227Z,-1.72
2023-02-25T21:58:01.616Z,-1.67
2023-02-25T22:00:29.993Z,-1.68
2023-02-25T22:02:59.713Z,-1.84
2023-02-25T22:05:28.229Z,-1.65
2023-02-25T22:07:56.983Z,-2.15
2023-02-25T22:10:25.598Z,-1.96
2023-02-25T22:12:55.445Z,-1.74
2023-02-25T22:15:23.913Z,-1.71
2023-02-25T22:17:52.312Z,-1.70
2023-02-25T22:20:22.829Z,-1.66
2023-02-25T22:22:51.809Z,-1.63
2023-02-25T22:25:20.540Z,-1.64
2023-02-25T22:27:49.103Z,-2.05
2023-02-25T22:30:18.437Z,-2.14
2023-02-25T22:32:46.921Z,-1.74
2023-02-25T22:35:15.578Z,-1.86
2023-02-25T22:37:45.839Z,-1.59
2023-02-25T22:40:14.811Z,-1.67
2023-02-25T22:42:43.289Z,-2.48
2023-02-25T22:45:12.432Z,-1.76
2023-02-25T22:47:40.783Z,-1.72
2023-02-25T22:50:10.412Z,-1.60
2023-02-25T22:52:38.844Z,-1.57
2023-02-25T22:55:11.374Z,-1.61
2023-02-25T22:57:39.884Z,-1.44
2023-02-25T23:00:17.015Z,-1.37
2023-02-25T23:02:45.592Z,-1.45
2023-02-25T23:05:14.281Z,-1.25
2023-02-25T23:07:43.121Z,-1.28
2023-02-25T23:10:13.594Z,-1.40
2023-02-25T23:12:42.067Z,-1.74
2023-02-25T23:15:11.754Z,-1.63
2023-02-25T23:17:40.479Z,-1.50
2023-02-25T23:20:11.366Z,-1.50
2023-02-25T23:22:39.843Z,-1.73
2023-02-25T23:25:10.078Z,-1.57
2023-02-25T23:27:39.959Z,-1.67
2023-02-25T23:30:10.428Z,-1.54
2023-02-25T23:32:40.826Z,-1.56
2023-02-25T23:35:11.086Z,-1.59
2023-02-25T23:37:39.835Z,-1.86
2023-02-25T23:40:11.890Z,-2.11
2023-02-25T23:42:43.074Z,-1.75
2023-02-25T23:45:15.276Z,-2.05
2023-02-25T23:47:44.132Z,-1.92
2023-02-25T23:50:16.458Z,-1.95
2023-02-25T23:52:47.276Z,-2.32
2023-02-25T23:55:16.321Z,-2.03
2023-02-25T23:57:46.096Z,-2.03
